K0OHU-1 Weather Reports


Display with metric or nautical units.
time (UTC)temp
F
wind
direction
speed
MPH
gust
MPH
rain 1hr
in
rain 24hr
in
rain mn
in
humidity
%
barometer
mb
20140423113247 47 163 0.0 3.0 0.00 0.00 0.00 62 1000.2
20140423111743 48 163 0.0 0.0 0.00 0.00 0.00 59 1000.6
20140423110245 50 163 0.0 1.0 0.00 0.00 0.00 57 1000.2
20140423104750 51 163 0.0 0.0 0.00 0.00 0.00 54 1000.0
20140423103240 50 163 0.0 0.0 0.00 0.00 0.00 55 1000.1
20140423101748 50 163 0.0 0.0 0.00 0.00 0.00 57 1000.3
20140423100257 50 163 0.0 0.0 0.00 0.00 0.00 56 1000.7
20140423094742 51 163 0.0 0.0 0.00 0.00 0.00 54 1000.8
20140423093255 51 163 0.0 0.0 0.00 0.00 0.00 54 1001.1
20140423091740 52 163 0.0 0.0 0.00 0.00 0.00 54 1001.5
20140423090250 53 163 0.0 0.0 0.00 0.00 0.00 51 1000.9
20140423084759 54 163 0.0 0.0 0.00 0.00 0.00 49 1001.5
20140423083248 56 163 0.0 0.0 0.00 0.00 0.00 47 1001.6
20140423081753 56 163 0.0 0.0 0.00 0.00 0.00 46 1001.8
20140423080247 57 171 0.0 3.0 0.00 0.00 0.00 46 1002.0
20140423074753 58 149 0.0 2.0 0.00 0.00 0.00 45 1001.9
20140423073242 58 145 0.0 5.0 0.00 0.00 0.00 44 1001.8
20140423071753 58 156 0.0 6.0 0.00 0.00 0.00 44 1001.9
20140423070244 59 157 0.0 5.0 0.00 0.00 0.00 43 1002.2
20140423064751 61 130 0.0 7.0 0.00 0.00 0.00 41 1002.3
20140423063246 61 98 3.0 9.0 0.00 0.00 0.00 40 1002.5
20140423061754 61 144 4.0 9.0 0.00 0.00 0.00 41 1002.6
20140423060305 62 178 4.0 9.0 0.00 0.00 0.00 40 1002.8
20140423054756 62 106 2.0 7.0 0.00 0.00 0.00 40 1003.2
20140423053307 62 149 0.0 2.0 0.00 0.00 0.00 41 1003.4
20140423051800 62 138 0.0 7.0 0.00 0.00 0.00 41 1003.6
20140423050312 61 143 0.0 2.0 0.00 0.00 0.00 43 1003.8
20140423044822 61 145 0.0 0.0 0.00 0.00 0.00 45 1003.6
20140423043315 61 138 0.0 0.0 0.00 0.00 0.00 44 1003.8
20140423041820 62 138 0.0 0.0 0.00 0.00 0.00 43 1004.6
20140423040310 63 138 0.0 4.0 0.00 0.00 0.00 43 1004.5
20140423034819 63 128 0.0 0.0 0.00 0.00 0.00 42 1004.4
20140423033308 62 188 0.0 0.0 0.00 0.00 0.00 43 1004.6
20140423031813 63 188 0.0 0.0 0.00 0.00 0.00 42 1004.5
20140423030306 64 188 0.0 0.0 0.00 0.00 0.00 41 1004.9
20140423024812 65 188 0.0 0.0 0.00 0.00 0.00 40 1004.9
20140423023321 65 188 0.0 5.0 0.00 0.00 0.00 39 1005.0
20140423021808 65 152 0.0 8.0 0.00 0.00 0.00 40 1005.1
20140423020318 66 20 0.0 0.0 0.00 0.00 0.00 37 1004.4
20140423014822 67 19 0.0 0.0 0.00 0.00 0.00 36 1005.2
20140423013314 68 20 0.0 0.0 0.00 0.00 0.00 35 1004.9
20140423011819 69 20 0.0 1.0 0.00 0.00 0.00 34 1004.8
20140423010309 70 20 0.0 0.0 0.00 0.00 0.00 33 1005.5
20140423004809 71 20 0.0 0.0 0.00 0.00 0.00 32 1005.4
20140423003307 73 306 0.0 0.0 0.00 0.00 0.00 30 1005.4
20140423001823 74 313 2.0 7.0 0.00 0.00 0.00 29 1005.5
20140423000318 74 186 0.0 5.0 0.00 0.00 0.00 28 1005.7
20140422234814 74 282 0.0 5.0 0.00 0.00 0.00 29 1005.6
20140422233317 74 186 0.0 2.0 0.00 0.00 0.00 28 1005.6
20140422231813 75 194 1.0 9.0 0.00 0.00 0.00 28 1005.8
20140422230312 74 182 0.0 13.0 0.00 0.00 0.00 28 1006.1
20140422224818 74 181 6.0 16.0 0.00 0.00 0.00 29 1006.5
20140422223311 75 24 3.0 9.0 0.00 0.00 0.00 26 1006.5
20140422221816 76 208 0.0 10.0 0.00 0.00 0.00 25 1006.7
20140422220305 78 309 0.0 6.0 0.00 0.00 0.00 24 1006.2
20140422214822 78 304 1.0 8.0 0.00 0.00 0.00 23 1006.6
20140422213310 80 323 2.0 8.0 0.00 0.00 0.00 22 1006.7
20140422211818 83 26 3.0 12.0 0.00 0.00 0.00 20 1006.5
20140422210311 81 325 2.0 8.0 0.00 0.00 0.00 23 1007.2
20140422204817 82 350 5.0 9.0 0.00 0.00 0.00 21 1007.7
20140422203307 82 329 1.0 10.0 0.00 0.00 0.00 21 1008.0
20140422201818 82 150 1.0 6.0 0.00 0.00 0.00 21 1007.9
20140422200308 77 55 5.0 11.0 0.00 0.00 0.00 24 1008.7
20140422194814 74 334 1.0 9.0 0.00 0.00 0.00 26 1008.3
20140422193309 75 302 1.0 29.0 0.00 0.00 0.00 25 1008.7
20140422191815 81 345 9.0 15.0 0.00 0.00 0.00 21 1009.4
20140422190322 82 355 0.0 8.0 0.00 0.00 0.00 20 1009.0
20140422184814 80 56 0.0 8.0 0.00 0.00 0.00 21 1009.9
20140422183324 80 67 2.0 9.0 0.00 0.00 0.00 21 1009.8
20140422181813 80 48 5.0 9.0 0.00 0.00 0.00 21 1010.4
20140422180322 79 95 2.0 10.0 0.00 0.00 0.00 20 1010.6
20140422174817 80 64 2.0 6.0 0.00 0.00 0.00 22 1011.0
20140422173316 77 84 0.0 6.0 0.00 0.00 0.00 26 1011.8
20140422171826 77 15 4.0 7.0 0.00 0.00 0.00 28 1012.1
20140422170314 75 344 6.0 10.0 0.00 0.00 0.00 30 1012.3
20140422164820 72 360 2.0 5.0 0.00 0.00 0.00 32 1012.7
20140422163312 70 340 0.0 2.0 0.00 0.00 0.00 33 1013.3
20140422161817 70 169 0.0 0.0 0.00 0.00 0.00 30 1013.6
20140422160307 71 19 0.0 5.0 0.00 0.00 0.00 31 1012.9
20140422154817 68 12 1.0 5.0 0.00 0.00 0.00 35 1013.1
20140422153308 65 80 0.0 1.0 0.00 0.00 0.00 37 1014.0
20140422151812 63 149 0.0 2.0 0.00 0.00 0.00 41 1013.7
20140422150325 62 113 0.0 0.0 0.00 0.00 0.00 43 1014.0
20140422144823 60 114 0.0 0.0 0.00 0.00 0.00 47 1014.3
20140422143331 58 117 0.0 2.0 0.00 0.00 0.00 49 1014.8
20140422141814 53 188 0.0 0.0 0.00 0.00 0.00 58 1014.8
20140422140325 50 187 0.0 0.0 0.00 0.00 0.00 65 1015.0
20140422134810 48 188 0.0 0.0 0.00 0.00 0.00 69 1014.8
20140422133323 46 188 0.0 0.0 0.00 0.00 0.00 73 1015.3
20140422131809 43 187 0.0 0.0 0.00 0.00 0.00 80 1015.5
20140422130319 41 188 0.0 0.0 0.00 0.00 0.00 83 1015.0
20140422124819 41 187 0.0 0.0 0.00 0.00 0.00 83 1015.2
20140422123319 40 188 0.0 0.0 0.00 0.00 0.00 83 1015.2
20140422121814 40 187 0.0 0.0 0.00 0.00 0.00 83 1015.3
20140422120312 40 187 0.0 0.0 0.00 0.00 0.00 82 1015.4
20140422114822 40 187 0.0 0.0 0.00 0.00 0.00 83 1015.6